Time;durP1;ratioP1;P1;durP2;ratioP2;P2;SDS_P1;SDS_P2;PMS_P1;PMS_P2;Temp;Humidity;BMP_temperature;BMP_pressure;BME280_temperature;BME280_humidity;BME280_pressure;Samples;Min_cycle;Max_cycle;Signal;HPM_P1;HPM_P2
2022/04/14 00:01:14;;;;;;;15.35;11.93;;;11.60;99.90;;;;;;6217150;23;20019;-87
2022/04/14 00:03:40;;;;;;;24.60;11.77;;;11.60;99.90;;;;;;6242469;23;20013;-89
2022/04/14 00:06:07;;;;;;;20.30;11.80;;;11.60;99.90;;;;;;6243928;23;20075;-87
2022/04/14 00:08:32;;;;;;;17.67;12.65;;;11.60;99.90;;;;;;6217398;23;20020;-87
2022/04/14 00:10:58;;;;;;;19.20;13.10;;;11.60;99.90;;;;;;6216822;23;20692;-88
2022/04/14 00:13:24;;;;;;;25.98;13.55;;;11.60;99.90;;;;;;6217389;23;20020;-86
2022/04/14 00:15:50;;;;;;;18.27;12.88;;;11.70;99.90;;;;;;6244339;23;20423;-89
2022/04/14 00:18:16;;;;;;;19.80;12.63;;;11.60;99.90;;;;;;6244403;23;19996;-88
2022/04/14 00:20:42;;;;;;;23.40;14.00;;;11.70;99.90;;;;;;6218207;23;20467;-87
2022/04/14 00:23:08;;;;;;;20.77;13.70;;;11.70;99.90;;;;;;6218297;23;20362;-87
2022/04/14 00:25:34;;;;;;;30.30;14.63;;;11.60;99.90;;;;;;6217534;23;20008;-87
2022/04/14 00:27:59;;;;;;;30.63;14.75;;;11.70;99.90;;;;;;6218197;23;20070;-88
2022/04/14 00:30:25;;;;;;;32.72;14.85;;;11.60;99.90;;;;;;6218612;23;20450;-89
2022/04/14 00:32:51;;;;;;;29.95;15.20;;;11.60;99.90;;;;;;6218592;23;20007;-88
2022/04/14 00:35:16;;;;;;;29.70;15.70;;;11.70;99.90;;;;;;6243586;23;20032;-88
2022/04/14 00:37:42;;;;;;;22.60;16.15;;;11.60;99.90;;;;;;6217732;23;20327;-89
2022/04/14 00:40:08;;;;;;;27.35;15.15;;;11.60;99.90;;;;;;6245446;23;20073;-87
2022/04/14 00:42:35;;;;;;;26.65;15.75;;;11.60;99.90;;;;;;6219007;23;20500;-87
2022/04/14 00:45:01;;;;;;;26.90;16.00;;;11.60;99.90;;;;;;6245490;23;20004;-88
2022/04/14 00:47:29;;;;;;;26.02;15.60;;;11.60;99.90;;;;;;6244440;23;20060;-87
2022/04/14 00:49:55;;;;;;;27.92;15.95;;;11.70;99.90;;;;;;6216223;23;20022;-88
2022/04/14 00:52:25;;;;;;;36.17;16.42;;;11.70;99.90;;;;;;6215681;23;20004;-88
2022/04/14 00:54:50;;;;;;;31.90;16.25;;;11.70;99.90;;;;;;6215849;23;20004;-87
2022/04/14 00:57:16;;;;;;;30.25;15.38;;;11.60;99.90;;;;;;6243133;23;20007;-88
2022/04/14 00:59:42;;;;;;;25.55;16.92;;;11.60;99.90;;;;;;6216189;23;20335;-88
2022/04/14 01:02:11;;;;;;;28.00;15.95;;;11.60;99.90;;;;;;6215364;23;20030;-88
2022/04/14 01:04:40;;;;;;;35.03;16.65;;;11.50;99.90;;;;;;6216459;23;20004;-89
2022/04/14 01:07:07;;;;;;;30.73;16.40;;;11.50;99.90;;;;;;6243285;23;19997;-88
2022/04/14 01:09:36;;;;;;;24.13;16.17;;;11.50;99.90;;;;;;6216586;23;20737;-88
2022/04/14 01:12:05;;;;;;;24.90;17.05;;;11.50;99.90;;;;;;6216314;23;20016;-87
2022/04/14 01:14:36;;;;;;;31.63;15.88;;;11.50;99.90;;;;;;6242545;23;20054;-87
2022/04/14 01:17:05;;;;;;;26.63;15.35;;;11.50;99.90;;;;;;6241785;23;20326;-88
2022/04/14 01:19:31;;;;;;;38.50;16.27;;;11.50;99.90;;;;;;6241464;23;20011;-87
2022/04/14 01:22:00;;;;;;;25.65;16.00;;;11.50;99.90;;;;;;6215022;23;20004;-89
2022/04/14 01:24:26;;;;;;;27.27;16.05;;;11.50;99.90;;;;;;6216029;23;20447;-88
2022/04/14 01:26:53;;;;;;;42.30;16.80;;;11.50;99.90;;;;;;6243209;23;20007;-87
2022/04/14 01:29:24;;;;;;;33.38;15.93;;;11.50;99.90;;;;;;6215921;23;20082;-88
2022/04/14 01:31:50;;;;;;;29.65;17.40;;;11.40;99.90;;;;;;6219640;23;20000;-88
2022/04/14 01:34:16;;;;;;;29.17;16.58;;;11.40;99.90;;;;;;6247214;23;20087;-88
2022/04/14 01:36:42;;;;;;;29.95;16.73;;;11.40;99.90;;;;;;6259443;23;19996;-88
2022/04/14 01:39:11;;;;;;;33.50;16.67;;;11.30;99.90;;;;;;6226742;23;20000;-88
2022/04/14 01:41:38;;;;;;;32.03;16.42;;;11.30;99.90;;;;;;6224385;23;20366;-87
2022/04/14 01:44:04;;;;;;;38.22;18.20;;;11.30;99.90;;;;;;6224986;23;20012;-87
2022/04/14 01:46:30;;;;;;;26.48;18.00;;;11.40;99.90;;;;;;6222850;23;20000;-88
2022/04/14 01:48:56;;;;;;;32.28;18.02;;;11.30;99.90;;;;;;6222844;23;20027;-88
2022/04/14 01:51:22;;;;;;;26.65;17.33;;;11.40;99.90;;;;;;6222427;23;20434;-88
2022/04/14 01:53:47;;;;;;;37.28;18.70;;;11.30;99.90;;;;;;6222931;23;20008;-87
2022/04/14 01:56:13;;;;;;;38.42;19.70;;;11.30;99.90;;;;;;6248158;23;20095;-88
2022/04/14 01:58:39;;;;;;;42.75;19.08;;;11.30;99.90;;;;;;6222077;23;20004;-87
2022/04/14 02:01:04;;;;;;;33.80;18.67;;;11.30;99.90;;;;;;6220487;23;20004;-88
2022/04/14 02:03:30;;;;;;;33.42;19.02;;;11.30;99.90;;;;;;6222324;23;20513;-88
2022/04/14 02:05:55;;;;;;;31.63;19.65;;;11.30;99.90;;;;;;6222099;23;20339;-89
2022/04/14 02:08:21;;;;;;;36.47;19.15;;;11.30;99.90;;;;;;6248853;23;20416;-88
2022/04/14 02:10:47;;;;;;;31.77;18.75;;;11.30;99.90;;;;;;6221696;23;20079;-87
2022/04/14 02:13:12;;;;;;;37.70;20.85;;;11.30;99.90;;;;;;6220769;23;20086;-87
2022/04/14 02:15:38;;;;;;;44.00;20.35;;;11.40;99.90;;;;;;6221814;23;20418;-88
2022/04/14 02:18:03;;;;;;;39.83;21.00;;;11.40;99.90;;;;;;6248468;23;20000;-87
2022/04/14 02:20:29;;;;;;;35.05;19.33;;;11.40;99.90;;;;;;6248430;23;20465;-87
2022/04/14 02:22:55;;;;;;;36.40;19.08;;;11.30;99.90;;;;;;6221594;23;20493;-87
2022/04/14 02:25:20;;;;;;;39.95;19.13;;;11.40;99.90;;;;;;6248330;23;20043;-87
2022/04/14 02:27:46;;;;;;;40.03;19.17;;;11.40;99.90;;;;;;6247195;23;20008;-88
2022/04/14 02:30:12;;;;;;;39.00;19.80;;;11.30;99.90;;;;;;6221820;23;20337;-88
2022/04/14 02:32:38;;;;;;;35.92;18.90;;;11.40;99.90;;;;;;6248217;23;19996;-87
2022/04/14 02:35:04;;;;;;;37.33;19.42;;;11.40;99.90;;;;;;6221175;23;20019;-88
2022/04/14 02:37:30;;;;;;;32.13;19.98;;;11.40;99.90;;;;;;6221633;23;20000;-87
2022/04/14 02:39:55;;;;;;;34.03;18.73;;;11.40;99.90;;;;;;6221901;23;20008;-87
2022/04/14 02:42:21;;;;;;;30.50;19.23;;;11.40;99.90;;;;;;6221900;23;20062;-88
2022/04/14 02:44:47;;;;;;;32.72;20.63;;;11.40;99.90;;;;;;6221825;23;20427;-87
2022/04/14 02:47:12;;;;;;;25.75;19.20;;;11.40;99.90;;;;;;6247194;23;20000;-87
2022/04/14 02:49:38;;;;;;;30.98;18.15;;;11.40;99.90;;;;;;6248198;23;20012;-87
2022/04/14 02:52:04;;;;;;;47.50;18.95;;;11.40;99.90;;;;;;6248588;23;19996;-87
2022/04/14 02:54:29;;;;;;;36.47;19.95;;;11.40;99.90;;;;;;6246814;23;20004;-87
2022/04/14 02:56:56;;;;;;;30.40;19.52;;;11.40;99.90;;;;;;6221745;23;20090;-87
2022/04/14 02:59:22;;;;;;;36.67;20.67;;;11.40;99.90;;;;;;6222035;23;20434;-87
2022/04/14 03:01:47;;;;;;;32.25;18.63;;;11.40;99.90;;;;;;6221587;23;20000;-88
2022/04/14 03:04:13;;;;;;;41.20;19.05;;;11.40;99.90;;;;;;6248120;23;20055;-88
2022/04/14 03:06:38;;;;;;;25.65;18.48;;;11.40;99.90;;;;;;6222189;23;20088;-87
2022/04/14 03:09:04;;;;;;;28.02;20.05;;;11.40;99.90;;;;;;6221476;23;20019;-87
2022/04/14 03:11:30;;;;;;;23.67;20.08;;;11.40;99.90;;;;;;6221227;23;20023;-87
2022/04/14 03:13:55;;;;;;;27.67;21.63;;;11.40;99.90;;;;;;6200942;23;20029;-89
2022/04/14 03:16:21;;;;;;;27.08;20.45;;;11.40;99.90;;;;;;6188358;23;20023;-87
2022/04/14 03:18:47;;;;;;;29.80;21.02;;;11.30;99.90;;;;;;6186640;23;20340;-88
2022/04/14 03:21:13;;;;;;;23.60;19.75;;;11.40;99.90;;;;;;6186990;23;20001;-88
2022/04/14 03:23:39;;;;;;;31.05;21.98;;;11.30;99.90;;;;;;6162024;23;20011;-88
2022/04/14 03:26:08;;;;;;;28.27;21.70;;;11.20;99.90;;;;;;6186663;23;20056;-87
2022/04/14 03:28:34;;;;;;;22.75;19.98;;;11.20;99.90;;;;;;6162121;23;20012;-87
2022/04/14 03:31:00;;;;;;;24.83;20.48;;;11.20;99.90;;;;;;6190036;23;20005;-88
2022/04/14 03:33:26;;;;;;;31.00;19.60;;;11.20;99.90;;;;;;6168800;23;20028;-86
2022/04/14 03:35:52;;;;;;;26.98;19.30;;;11.20;99.90;;;;;;6180018;23;20033;-86
2022/04/14 03:38:17;;;;;;;31.25;21.75;;;11.10;99.90;;;;;;6207662;23;20013;-88
2022/04/14 03:40:43;;;;;;;28.00;20.33;;;11.10;99.90;;;;;;6202651;23;20001;-86
2022/04/14 03:43:09;;;;;;;27.40;20.65;;;11.10;99.90;;;;;;6206579;23;20016;-86
2022/04/14 03:45:34;;;;;;;24.00;20.50;;;11.10;99.90;;;;;;6182601;23;19985;-88
2022/04/14 03:48:00;;;;;;;29.80;20.05;;;11.10;99.90;;;;;;6185819;23;19997;-87
2022/04/14 03:50:25;;;;;;;26.95;19.48;;;11.00;99.90;;;;;;6188048;23;20061;-88
2022/04/14 03:52:51;;;;;;;26.85;19.48;;;11.00;99.90;;;;;;6213739;23;19991;-88
2022/04/14 03:55:17;;;;;;;23.67;18.33;;;10.90;99.90;;;;;;6212409;23;19996;-86
2022/04/14 03:57:42;;;;;;;21.08;17.70;;;10.90;99.90;;;;;;6183513;23;20013;-87
2022/04/14 04:00:08;;;;;;;25.08;18.15;;;10.90;99.90;;;;;;6183559;23;20024;-87
2022/04/14 04:02:37;;;;;;;22.65;17.52;;;10.90;99.90;;;;;;6209762;23;20061;-88
2022/04/14 04:05:04;;;;;;;27.70;18.63;;;10.90;99.90;;;;;;6205545;23;20009;-87
2022/04/14 04:07:32;;;;;;;27.10;19.45;;;10.80;99.90;;;;;;6179401;23;20006;-87
2022/04/14 04:09:58;;;;;;;28.50;19.05;;;10.80;99.90;;;;;;6208098;23;20037;-87
2022/04/14 04:12:23;;;;;;;29.20;19.08;;;10.80;99.90;;;;;;6180151;23;20440;-88
2022/04/14 04:14:49;;;;;;;29.58;18.70;;;10.70;99.90;;;;;;6228260;23;20000;-88
2022/04/14 04:17:16;;;;;;;24.10;17.95;;;10.70;99.90;;;;;;6196771;23;20020;-88
2022/04/14 04:19:43;;;;;;;32.08;18.77;;;10.70;99.90;;;;;;6191712;23;20032;-87
2022/04/14 04:22:11;;;;;;;26.02;18.38;;;10.60;99.90;;;;;;6191853;23;20088;-87
2022/04/14 04:24:37;;;;;;;19.92;17.88;;;10.60;99.90;;;;;;6217102;23;20412;-88
2022/04/14 04:27:04;;;;;;;28.95;17.63;;;10.60;99.90;;;;;;6217242;23;20007;-88
2022/04/14 04:29:29;;;;;;;19.30;16.20;;;10.60;99.90;;;;;;6191525;23;20447;-88
2022/04/14 04:31:55;;;;;;;22.80;16.77;;;10.70;99.90;;;;;;6188949;23;20011;-88
2022/04/14 04:34:21;;;;;;;29.88;18.88;;;10.60;99.90;;;;;;6187564;23;20012;-88
2022/04/14 04:36:46;;;;;;;26.30;17.10;;;10.60;99.90;;;;;;6188854;23;20012;-90
2022/04/14 04:39:12;;;;;;;21.25;17.52;;;10.60;99.90;;;;;;6190176;23;20008;-89
2022/04/14 04:41:38;;;;;;;23.83;16.73;;;10.60;99.90;;;;;;6189195;23;20007;-87
2022/04/14 04:44:04;;;;;;;21.25;18.38;;;10.60;99.90;;;;;;6188891;23;20083;-88
2022/04/14 04:46:31;;;;;;;22.55;17.02;;;10.60;99.90;;;;;;6188621;23;20096;-88
2022/04/14 04:48:57;;;;;;;24.65;16.77;;;10.60;99.90;;;;;;6187677;23;20458;-89
2022/04/14 04:51:24;;;;;;;21.40;16.80;;;10.60;99.90;;;;;;6187486;23;20013;-89
2022/04/14 04:53:51;;;;;;;28.27;18.17;;;10.60;99.90;;;;;;6186881;23;20009;-88
2022/04/14 04:56:18;;;;;;;28.10;17.00;;;10.60;99.90;;;;;;6186168;23;20005;-89
2022/04/14 04:58:44;;;;;;;36.08;18.40;;;10.60;99.90;;;;;;6213331;23;20005;-87
2022/04/14 05:01:10;;;;;;;29.15;18.85;;;10.60;99.90;;;;;;6186029;23;20067;-87
2022/04/14 05:03:35;;;;;;;24.33;18.15;;;10.50;99.90;;;;;;6186589;23;20013;-89
2022/04/14 05:06:01;;;;;;;22.42;18.13;;;10.50;99.90;;;;;;6211781;23;20078;-87
2022/04/14 05:08:27;;;;;;;25.33;17.40;;;10.40;99.90;;;;;;6184431;23;20008;-88
2022/04/14 05:10:53;;;;;;;37.55;16.92;;;10.40;99.90;;;;;;6213675;23;20000;-88
2022/04/14 05:13:18;;;;;;;25.70;15.55;;;10.50;99.90;;;;;;6192350;23;20098;-88
2022/04/14 05:15:44;;;;;;;37.05;17.40;;;10.50;99.90;;;;;;6217046;23;20004;-90
2022/04/14 05:18:10;;;;;;;34.03;16.45;;;10.60;99.90;;;;;;6247313;23;20044;-89
2022/04/14 05:20:36;;;;;;;29.10;15.00;;;10.50;99.90;;;;;;6220210;23;20443;-89
2022/04/14 05:23:03;;;;;;;24.08;15.70;;;10.60;99.90;;;;;;6221534;23;19996;-90
2022/04/14 05:25:29;;;;;;;30.85;16.85;;;10.50;99.90;;;;;;6221945;23;20046;-89
2022/04/14 05:27:55;;;;;;;31.00;17.50;;;10.50;99.90;;;;;;6221836;23;20004;-89
2022/04/14 05:30:21;;;;;;;37.63;18.25;;;10.40;99.90;;;;;;6247278;23;20019;-88
2022/04/14 05:32:46;;;;;;;38.25;17.67;;;10.40;99.90;;;;;;6221552;23;20004;-89
2022/04/14 05:35:12;;;;;;;27.80;16.98;;;10.40;99.90;;;;;;6221808;23;20012;-90
2022/04/14 05:37:38;;;;;;;53.00;19.25;;;10.40;99.90;;;;;;6247646;23;20280;-90
2022/04/14 05:40:05;;;;;;;22.27;19.60;;;10.40;99.90;;;;;;6220974;23;20012;-90
2022/04/14 05:42:31;;;;;;;31.48;18.25;;;10.40;99.90;;;;;;6248030;23;20071;-89
2022/04/14 05:44:59;;;;;;;25.80;19.80;;;10.40;99.90;;;;;;6221014;23;20108;-89
2022/04/14 05:47:24;;;;;;;20.85;18.58;;;10.30;99.90;;;;;;6220654;23;20007;-90
2022/04/14 05:49:51;;;;;;;26.63;17.88;;;10.30;99.90;;;;;;6220115;23;20012;-89
2022/04/14 05:52:17;;;;;;;29.33;18.92;;;10.30;99.90;;;;;;6221030;23;20008;-88
2022/04/14 05:54:46;;;;;;;26.60;16.60;;;10.30;99.90;;;;;;6248030;23;20036;-89
2022/04/14 05:57:12;;;;;;;19.27;16.48;;;10.30;99.90;;;;;;6220868;23;20091;-90
2022/04/14 05:59:38;;;;;;;24.77;15.32;;;10.30;99.90;;;;;;6220602;23;20008;-90
2022/04/14 06:02:04;;;;;;;21.45;15.57;;;10.40;99.90;;;;;;6247728;23;20007;-90
2022/04/14 06:04:30;;;;;;;22.77;16.25;;;10.40;99.90;;;;;;6245853;23;20005;-88
2022/04/14 06:06:55;;;;;;;27.27;17.02;;;10.50;99.90;;;;;;6220451;23;20009;-87
2022/04/14 06:09:21;;;;;;;22.17;16.42;;;10.50;99.90;;;;;;6220956;23;20023;-91
2022/04/14 06:11:47;;;;;;;24.52;16.65;;;10.50;99.90;;;;;;6247556;23;20350;-88
2022/04/14 06:14:12;;;;;;;19.00;17.15;;;10.60;99.90;;;;;;6220957;23;20031;-89
2022/04/14 06:16:38;;;;;;;23.13;16.95;;;10.50;99.90;;;;;;6220635;23;20083;-89
2022/04/14 06:19:04;;;;;;;18.75;16.17;;;10.60;99.90;;;;;;6221312;23;20431;-90
2022/04/14 06:21:29;;;;;;;17.40;15.20;;;10.70;99.90;;;;;;6221636;23;20035;-89
2022/04/14 06:23:56;;;;;;;21.35;18.42;;;10.70;99.90;;;;;;6249817;23;20004;-89
2022/04/14 06:26:22;;;;;;;23.17;18.10;;;10.70;99.90;;;;;;6250882;23;19996;-91
2022/04/14 06:28:48;;;;;;;28.05;18.17;;;10.70;99.90;;;;;;6249562;23;20026;-89
2022/04/14 06:31:14;;;;;;;22.88;18.58;;;10.60;99.90;;;;;;6247856;23;20009;-90
2022/04/14 06:33:39;;;;;;;23.27;17.95;;;10.70;99.90;;;;;;6222846;23;20008;-90
2022/04/14 06:36:05;;;;;;;26.17;19.58;;;10.80;99.90;;;;;;6247943;23;20071;-90
2022/04/14 06:38:31;;;;;;;24.27;20.30;;;10.80;99.90;;;;;;6225072;23;20415;-90
2022/04/14 06:40:56;;;;;;;29.20;22.38;;;10.80;99.90;;;;;;6235727;23;20039;-88
2022/04/14 06:43:24;;;;;;;28.60;22.42;;;10.80;99.90;;;;;;6253772;23;20008;-88
2022/04/14 06:45:50;;;;;;;23.42;21.02;;;11.00;99.90;;;;;;6229478;23;20087;-88
2022/04/14 06:48:16;;;;;;;28.23;22.20;;;11.00;99.90;;;;;;6225577;23;20008;-88
2022/04/14 06:50:42;;;;;;;39.28;24.25;;;10.90;99.90;;;;;;6222039;23;20118;-88
2022/04/14 06:53:07;;;;;;;30.25;23.40;;;10.90;99.90;;;;;;6222853;23;20000;-89
2022/04/14 06:55:35;;;;;;;30.48;24.98;;;10.90;99.90;;;;;;6222047;23;20004;-91
2022/04/14 06:58:02;;;;;;;29.00;23.52;;;11.00;99.90;;;;;;6222760;23;20091;-88
2022/04/14 07:00:28;;;;;;;26.83;23.58;;;11.00;99.90;;;;;;6222103;23;20012;-87
2022/04/14 07:02:54;;;;;;;26.15;21.30;;;11.10;99.90;;;;;;6248478;23;20000;-89
2022/04/14 07:05:22;;;;;;;26.88;21.40;;;11.20;99.90;;;;;;6222044;23;20030;-88
2022/04/14 07:07:48;;;;;;;24.95;21.65;;;11.30;99.90;;;;;;6249196;23;20354;-88
2022/04/14 07:10:14;;;;;;;26.67;20.65;;;11.30;99.90;;;;;;6248806;23;20023;-88
2022/04/14 07:12:41;;;;;;;28.98;22.77;;;11.50;99.90;;;;;;6222211;23;20362;-87
2022/04/14 07:15:08;;;;;;;27.50;23.85;;;11.50;99.90;;;;;;6221758;23;20072;-88
2022/04/14 07:17:34;;;;;;;26.02;22.58;;;11.60;99.90;;;;;;6221736;23;20358;-88
2022/04/14 07:20:01;;;;;;;28.27;24.52;;;11.70;99.90;;;;;;6221436;23;20036;-89
2022/04/14 07:22:27;;;;;;;29.98;25.63;;;11.80;99.90;;;;;;6248348;23;20095;-88
2022/04/14 07:24:53;;;;;;;31.20;26.13;;;11.80;99.90;;;;;;6221769;23;20019;-87
2022/04/14 07:27:21;;;;;;;30.17;24.60;;;11.80;99.90;;;;;;6221469;23;20008;-91
2022/04/14 07:29:47;;;;;;;26.85;23.92;;;11.80;99.90;;;;;;6221202;23;20008;-89
2022/04/14 07:32:13;;;;;;;26.23;22.23;;;11.80;99.90;;;;;;6221257;23;20001;-89
2022/04/14 07:34:39;;;;;;;26.67;22.77;;;11.90;99.90;;;;;;6221220;23;20015;-88
2022/04/14 07:37:05;;;;;;;27.20;22.80;;;12.00;99.90;;;;;;6248311;23;19992;-90
2022/04/14 07:39:31;;;;;;;24.23;20.33;;;12.10;99.90;;;;;;6247891;23;20027;-90
2022/04/14 07:41:56;;;;;;;32.75;27.45;;;12.20;99.90;;;;;;6221157;23;20007;-90
2022/04/14 07:44:22;;;;;;;33.63;26.58;;;12.10;99.90;;;;;;6221637;23;20014;-92
2022/04/14 07:46:47;;;;;;;32.42;27.42;;;12.10;99.90;;;;;;6197323;23;20008;-90
2022/04/14 07:49:13;;;;;;;30.08;25.98;;;12.10;99.90;;;;;;6222054;23;20099;-90
2022/04/14 07:51:40;;;;;;;30.30;25.83;;;12.20;99.90;;;;;;6221100;23;20446;-92
2022/04/14 07:54:06;;;;;;;30.52;24.85;;;12.20;99.90;;;;;;6197950;23;20022;-92
2022/04/14 07:56:33;;;;;;;32.30;26.40;;;12.30;99.90;;;;;;6221739;23;20076;-91
2022/04/14 07:58:59;;;;;;;32.42;27.50;;;12.40;99.90;;;;;;6247325;23;20019;-89
2022/04/14 08:01:25;;;;;;;29.02;24.27;;;12.40;99.90;;;;;;6221533;23;20058;-88
2022/04/14 08:03:51;;;;;;;29.08;25.45;;;12.50;99.90;;;;;;6221685;23;20059;-91
2022/04/14 08:06:17;;;;;;;30.00;25.50;;;12.60;99.90;;;;;;6221291;23;20012;-93
2022/04/14 08:08:43;;;;;;;25.45;22.02;;;12.70;99.90;;;;;;6221745;23;20086;-92
2022/04/14 08:11:10;;;;;;;23.67;20.45;;;12.80;99.90;;;;;;6221351;23;20019;-89
2022/04/14 08:13:41;;;;;;;24.55;19.35;;;12.90;99.90;;;;;;6220496;23;20066;-90
2022/04/14 08:16:09;;;;;;;24.42;19.27;;;13.00;99.90;;;;;;6221860;23;20087;-91
2022/04/14 08:18:39;;;;;;;25.60;20.20;;;13.10;99.90;;;;;;6221659;23;20011;-91
2022/04/14 08:21:05;;;;;;;24.40;20.33;;;13.20;99.90;;;;;;6246795;23;20010;-91
2022/04/14 08:23:32;;;;;;;23.25;17.67;;;13.30;99.90;;;;;;6222273;23;20157;-90
2022/04/14 08:26:00;;;;;;;20.17;16.55;;;13.50;99.90;;;;;;6221882;23;20018;-92
2022/04/14 08:28:25;;;;;;;20.77;18.58;;;13.80;99.90;;;;;;6221115;23;20098;-90
2022/04/14 08:30:54;;;;;;;22.45;18.25;;;14.20;99.90;;;;;;6246967;23;20016;-89
2022/04/14 08:33:20;;;;;;;21.48;18.40;;;14.50;99.90;;;;;;6220976;23;20030;-89
2022/04/14 08:35:54;;;;;;;21.55;19.25;;;14.70;99.90;;;;;;6249036;23;20079;-90
2022/04/14 08:38:21;;;;;;;22.13;17.20;;;15.00;99.90;;;;;;6247266;23;20008;-90
2022/04/14 08:40:54;;;;;;;19.20;17.00;;;15.20;99.90;;;;;;6220513;23;20437;-90
2022/04/14 08:43:24;;;;;;;;;;;15.30;99.90;;;;;;6221435;23;20015;-90
2022/04/14 08:45:51;;;;;;;16.98;14.70;;;15.50;99.90;;;;;;6220845;23;19900;-90
2022/04/14 08:48:20;;;;;;;15.25;12.93;;;15.70;99.90;;;;;;6220907;23;20083;-90
2022/04/14 08:50:50;;;;;;;16.80;13.93;;;15.90;99.90;;;;;;6220592;23;20066;-91
2022/04/14 08:53:18;;;;;;;15.18;12.00;;;16.10;99.90;;;;;;6220798;23;20335;-90
2022/04/14 08:55:44;;;;;;;13.77;12.20;;;16.20;99.90;;;;;;6246743;23;20065;-91
2022/04/14 08:58:14;;;;;;;18.88;13.82;;;16.30;99.90;;;;;;6222233;23;20004;-91
2022/04/14 09:00:41;;;;;;;16.23;13.18;;;16.30;99.90;;;;;;6221219;23;20004;-89
2022/04/14 09:03:06;;;;;;;16.88;12.40;;;16.40;99.90;;;;;;6224701;23;20000;-89
2022/04/14 09:05:33;;;;;;;15.90;12.00;;;16.50;99.90;;;;;;6226485;23;20004;-92
2022/04/14 09:08:00;;;;;;;14.57;11.75;;;16.60;99.90;;;;;;6221636;23;20015;-91
2022/04/14 09:10:25;;;;;;;16.88;11.35;;;16.70;99.90;;;;;;6220372;23;20020;-91
2022/04/14 09:12:51;;;;;;;17.00;10.90;;;16.70;99.90;;;;;;6220971;22;20043;-89
2022/04/14 09:15:17;;;;;;;13.07;10.50;;;16.60;99.90;;;;;;6251327;23;20042;-86
2022/04/14 09:17:43;;;;;;;14.48;10.32;;;16.50;99.90;;;;;;6227959;23;20051;-87
2022/04/14 09:20:36;;;;;;;13.50;9.10;;;16.50;99.90;;;;;;6254944;23;20007;-87
2022/04/14 09:23:26;;;;;;;11.53;9.20;;;16.50;99.90;;;;;;6257120;23;20005;-87
2022/04/14 09:26:11;;;;;;;15.50;9.27;;;16.40;99.90;;;;;;6251914;23;20004;-88
2022/04/14 09:28:38;;;;;;;14.32;10.25;;;16.40;99.90;;;;;;6254980;23;20002;-87
2022/04/14 09:31:09;;;;;;;10.90;9.18;;;16.50;99.90;;;;;;6254427;23;20027;-86
2022/04/14 09:33:45;;;;;;;16.02;9.35;;;16.50;99.90;;;;;;6256411;23;20015;-86
2022/04/14 09:36:16;;;;;;;11.32;8.32;;;16.50;99.90;;;;;;6257792;23;20007;-87
2022/04/14 09:39:08;;;;;;;11.32;9.68;;;16.60;99.90;;;;;;6253213;23;20000;-87
2022/04/14 09:41:43;;;;;;;10.63;8.48;;;17.20;99.90;;;;;;6247725;23;20005;-86
2022/04/14 09:44:10;;;;;;;9.38;7.63;;;18.50;99.90;;;;;;6260345;23;20015;-90
2022/04/14 09:46:39;;;;;;;11.63;8.77;;;19.70;99.90;;;;;;6259641;23;20430;-89
2022/04/14 09:49:19;;;;;;;10.48;7.93;;;20.70;99.90;;;;;;6260301;23;20106;-86
2022/04/14 09:51:51;;;;;;;10.27;7.20;;;21.60;99.90;;;;;;6262265;23;20043;-86
2022/04/14 09:54:18;;;;;;;10.30;6.88;;;22.10;99.90;;;;;;6262246;23;20000;-88
2022/04/14 09:56:53;;;;;;;12.25;7.55;;;22.70;99.90;;;;;;6267134;23;20446;-88
2022/04/14 09:59:29;;;;;;;10.73;7.47;;;23.10;99.90;;;;;;6263138;23;19997;-88
2022/04/14 10:02:18;;;;;;;8.35;5.85;;;23.40;99.90;;;;;;6265819;23;20016;-87
2022/04/14 10:04:46;;;;;;;10.25;7.35;;;23.70;99.90;;;;;;6260122;23;20004;-87
2022/04/14 10:07:15;;;;;;;8.05;6.65;;;23.90;99.90;;;;;;6232150;23;20010;-91
2022/04/14 10:09:43;;;;;;;8.85;6.13;;;24.10;99.90;;;;;;6236023;23;20062;-87
2022/04/14 10:12:18;;;;;;;6.88;5.50;;;24.10;99.90;;;;;;6231708;23;20016;-88
2022/04/14 10:14:58;;;;;;;7.28;4.90;;;24.40;99.90;;;;;;6228275;23;20021;-90
2022/04/14 10:17:44;;;;;;;7.68;4.97;;;24.50;99.90;;;;;;6268288;23;19993;-91
2022/04/14 10:20:14;;;;;;;9.98;5.90;;;24.60;99.90;;;;;;6227634;23;20008;-86
2022/04/14 10:22:42;;;;;;;7.43;4.97;;;24.50;99.90;;;;;;6213325;22;20087;-86
2022/04/14 10:25:08;;;;;;;7.38;4.90;;;24.70;99.90;;;;;;6229437;23;20060;-86
2022/04/14 10:27:36;;;;;;;9.48;5.18;;;25.00;99.90;;;;;;6203605;23;20004;-86
